Time;durP1;ratioP1;P1;durP2;ratioP2;P2;SDS_P1;SDS_P2;PMS_P1;PMS_P2;Temp;Humidity;BMP_temperature;BMP_pressure;BME280_temperature;BME280_humidity;BME280_pressure;Samples;Min_cycle;Max_cycle;Signal;HPM_P1;HPM_P2
2022/08/26 06:12:14;;;;;;;5.35;2.20;;;;;;;;;;5351588;24;20050;-66
2022/08/26 06:14:40;;;;;;;5.15;2.28;;;;;;;;;;4821189;29;20440;-67
2022/08/26 06:17:08;;;;;;;4.10;2.17;;;;;;;;;;4825638;29;20026;-67
2022/08/26 06:19:34;;;;;;;6.85;2.33;;;;;;;;;;4825467;29;20027;-66
2022/08/26 06:25:36;;;;;;;2.20;2.00;;;;;;;;;;4825441;29;20030;-66
2022/08/26 06:27:32;;;;;;;7.32;2.40;;;;;;;;;;4840335;29;20042;-67
2022/08/26 06:29:58;;;;;;;5.25;2.40;;;;;;;;;;4824225;29;20510;-66
2022/08/26 06:32:25;;;;;;;9.65;3.05;;;;;;;;;;4825319;29;20038;-67
2022/08/26 06:34:51;;;;;;;5.75;2.95;;;;;;;;;;4825607;29;20047;-67
2022/08/26 06:37:17;;;;;;;4.78;2.38;;;;;;;;;;4825941;29;20044;-66
2022/08/26 06:39:43;;;;;;;5.03;2.50;;;;;;;;;;4825148;29;20032;-66
2022/08/26 06:42:10;;;;;;;3.92;1.92;;;;;;;;;;4825457;29;20031;-66
2022/08/26 06:44:36;;;;;;;6.25;2.20;;;;;;;;;;4825303;29;20034;-66
2022/08/26 06:47:02;;;;;;;5.05;2.03;;;;;;;;;;4839426;29;20038;-67
2022/08/26 06:49:28;;;;;;;7.05;2.53;;;;;;;;;;4825206;29;20030;-67
2022/08/26 06:51:59;;;;;;;5.28;2.05;;;;;;;;;;4823904;29;20031;-66
2022/08/26 06:54:26;;;;;;;4.40;2.05;;;;;;;;;;4825356;29;20036;-67
2022/08/26 06:56:55;;;;;;;3.95;2.13;;;;;;;;;;4825680;29;20050;-66
2022/08/26 06:59:22;;;;;;;3.65;2.47;;;;;;;;;;4806886;29;20030;-67
2022/08/26 07:01:48;;;;;;;4.13;2.72;;;;;;;;;;4807021;29;20037;-67
2022/08/26 07:04:15;;;;;;;9.43;2.78;;;;;;;;;;4807447;29;20373;-67
2022/08/26 07:06:45;;;;;;;9.38;2.80;;;;;;;;;;4807182;29;20445;-67
2022/08/26 07:09:12;;;;;;;5.88;2.63;;;;;;;;;;4807217;29;20031;-67
2022/08/26 07:11:39;;;;;;;6.00;2.60;;;;;;;;;;4817239;29;20411;-67
2022/08/26 07:14:05;;;;;;;4.18;2.58;;;;;;;;;;4824264;29;20035;-67
2022/08/26 07:16:32;;;;;;;3.38;2.40;;;;;;;;;;4824924;29;20041;-67
2022/08/26 07:18:58;;;;;;;6.07;2.70;;;;;;;;;;4824866;29;20068;-67
2022/08/26 07:21:25;;;;;;;7.07;2.33;;;;;;;;;;4824631;29;20022;-66
2022/08/26 07:23:52;;;;;;;8.50;2.28;;;;;;;;;;4825196;29;20034;-67
2022/08/26 07:26:20;;;;;;;4.22;2.42;;;;;;;;;;4824940;29;20056;-67
2022/08/26 07:28:49;;;;;;;2.30;2.10;;;;;;;;;;4838579;29;20041;-66
2022/08/26 07:31:16;;;;;;;3.30;1.85;;;;;;;;;;4824605;29;20037;-67
2022/08/26 07:33:43;;;;;;;3.83;2.00;;;;;;;;;;4824659;29;20503;-67
2022/08/26 07:36:10;;;;;;;4.72;2.13;;;;;;;;;;4824936;29;20027;-67
2022/08/26 07:38:37;;;;;;;4.30;1.40;;;;;;;;;;4824419;29;20488;-72
2022/08/26 07:41:03;;;;;;;4.30;1.70;;;;;;;;;;4821418;29;20453;-71
2022/08/26 07:43:30;;;;;;;3.60;1.50;;;;;;;;;;4822586;29;20027;-72
2022/08/26 07:45:57;;;;;;;2.38;1.65;;;;;;;;;;4823241;29;20046;-72
2022/08/26 07:48:23;;;;;;;6.68;1.38;;;;;;;;;;4822845;29;20030;-72
2022/08/26 07:50:52;;;;;;;7.47;2.40;;;;;;;;;;4823782;29;20022;-72
2022/08/26 07:53:20;;;;;;;4.30;2.05;;;;;;;;;;4825360;29;20042;-72
2022/08/26 07:55:46;;;;;;;3.25;1.95;;;;;;;;;;4823678;29;20026;-70
2022/08/26 07:58:13;;;;;;;2.00;1.73;;;;;;;;;;4823897;29;20039;-70
2022/08/26 08:00:40;;;;;;;4.72;2.13;;;;;;;;;;4824398;29;20048;-70
2022/08/26 08:03:06;;;;;;;2.22;1.58;;;;;;;;;;4823630;29;20042;-70
2022/08/26 08:05:35;;;;;;;4.03;1.80;;;;;;;;;;4824244;29;20074;-70
2022/08/26 08:08:02;;;;;;;1.90;1.40;;;;;;;;;;4824247;29;20080;-71
2022/08/26 08:10:29;;;;;;;5.80;1.95;;;;;;;;;;4823795;29;20494;-72
2022/08/26 08:12:56;;;;;;;2.50;2.05;;;;;;;;;;4823837;29;20055;-72
2022/08/26 08:15:25;;;;;;;3.05;1.73;;;;;;;;;;4823961;29;20026;-72
2022/08/26 08:17:51;;;;;;;6.05;1.98;;;;;;;;;;4824172;29;20045;-72
2022/08/26 08:20:18;;;;;;;2.92;1.83;;;;;;;;;;4824226;29;20023;-72
2022/08/26 08:22:44;;;;;;;2.33;2.00;;;;;;;;;;4822761;29;20525;-72
2022/08/26 08:25:11;;;;;;;3.40;2.25;;;;;;;;;;4823472;29;20043;-72
2022/08/26 08:27:38;;;;;;;4.50;1.90;;;;;;;;;;4824071;29;20034;-72
2022/08/26 08:30:06;;;;;;;3.22;1.67;;;;;;;;;;4824007;29;20074;-72
2022/08/26 08:32:32;;;;;;;3.05;1.98;;;;;;;;;;4823556;29;20525;-72
2022/08/26 08:34:58;;;;;;;2.00;1.58;;;;;;;;;;4823650;29;20049;-70
2022/08/26 08:37:25;;;;;;;3.92;1.63;;;;;;;;;;4824118;29;20026;-70
2022/08/26 08:39:51;;;;;;;2.40;1.60;;;;;;;;;;4823214;29;20031;-71
2022/08/26 08:42:20;;;;;;;4.45;1.80;;;;;;;;;;4824245;29;20030;-72
2022/08/26 08:44:49;;;;;;;6.35;1.80;;;;;;;;;;4823284;29;20373;-72
2022/08/26 08:47:19;;;;;;;9.65;1.63;;;;;;;;;;4822668;29;20049;-72
2022/08/26 08:49:45;;;;;;;10.15;1.60;;;;;;;;;;4823387;29;20510;-72
2022/08/26 08:52:32;;;;;;;4.18;1.52;;;;;;;;;;4823819;29;20034;-72
2022/08/26 08:54:58;;;;;;;4.65;1.70;;;;;;;;;;4823081;29;20046;-72
2022/08/26 08:57:24;;;;;;;3.05;1.58;;;;;;;;;;4837182;29;20048;-72
2022/08/26 08:59:57;;;;;;;2.30;1.27;;;;;;;;;;4823273;29;20033;-72
2022/08/26 09:02:28;;;;;;;4.35;1.40;;;;;;;;;;4823553;29;20030;-72
2022/08/26 09:05:03;;;;;;;7.13;2.20;;;;;;;;;;4823277;29;20023;-72
2022/08/26 09:07:48;;;;;;;4.13;1.50;;;;;;;;;;4823672;29;20034;-72
2022/08/26 09:10:27;;;;;;;8.15;1.55;;;;;;;;;;4823128;29;20040;-72
2022/08/26 09:12:53;;;;;;;4.85;1.50;;;;;;;;;;4823004;29;20080;-72
2022/08/26 09:15:29;;;;;;;3.58;1.67;;;;;;;;;;4823403;29;20038;-72
2022/08/26 09:17:56;;;;;;;5.50;1.55;;;;;;;;;;4823397;29;20032;-72
2022/08/26 09:20:22;;;;;;;6.30;1.70;;;;;;;;;;4823253;29;20426;-72
2022/08/26 09:22:50;;;;;;;5.38;1.50;;;;;;;;;;4823021;29;20094;-72
2022/08/26 09:25:16;;;;;;;3.60;1.50;;;;;;;;;;4823512;29;20026;-72
2022/08/26 09:27:43;;;;;;;3.55;1.40;;;;;;;;;;4823257;29;20027;-72
2022/08/26 09:30:29;;;;;;;7.53;1.65;;;;;;;;;;4823247;29;20026;-72
2022/08/26 09:33:01;;;;;;;6.97;1.60;;;;;;;;;;4822933;29;20027;-72
2022/08/26 09:35:32;;;;;;;7.47;1.67;;;;;;;;;;4822613;29;20415;-72
2022/08/26 09:37:58;;;;;;;4.68;1.30;;;;;;;;;;4822660;29;20496;-72
2022/08/26 09:40:25;;;;;;;3.55;1.60;;;;;;;;;;4822887;29;20029;-72
2022/08/26 09:43:06;;;;;;;5.90;1.88;;;;;;;;;;4823242;29;20034;-72
2022/08/26 09:45:32;;;;;;;8.40;1.70;;;;;;;;;;4823242;29;20019;-72
2022/08/26 09:47:59;;;;;;;3.80;1.50;;;;;;;;;;4823248;29;20044;-72
2022/08/26 09:50:28;;;;;;;8.38;1.52;;;;;;;;;;4823132;29;20022;-72
2022/08/26 09:53:05;;;;;;;1.95;1.30;;;;;;;;;;4822099;29;20032;-72
2022/08/26 09:55:31;;;;;;;4.55;1.50;;;;;;;;;;4822924;29;20030;-72
2022/08/26 09:57:58;;;;;;;4.10;1.50;;;;;;;;;;4822721;29;20041;-71
2022/08/26 10:00:30;;;;;;;2.47;1.80;;;;;;;;;;4822592;29;20452;-70
2022/08/26 10:02:58;;;;;;;1.92;1.60;;;;;;;;;;4822349;29;20019;-72
2022/08/26 10:05:32;;;;;;;2.40;1.75;;;;;;;;;;4822311;29;20026;-73
2022/08/26 10:07:59;;;;;;;2.10;1.27;;;;;;;;;;4822158;29;20042;-72
2022/08/26 10:10:34;;;;;;;4.72;1.35;;;;;;;;;;4822670;29;20022;-72
2022/08/26 10:13:07;;;;;;;1.92;1.33;;;;;;;;;;4822599;29;20056;-72
2022/08/26 10:15:45;;;;;;;2.75;1.58;;;;;;;;;;4822556;29;20038;-72
2022/08/26 10:18:17;;;;;;;3.45;1.35;;;;;;;;;;4822984;29;20030;-72
2022/08/26 10:21:01;;;;;;;8.80;1.70;;;;;;;;;;4822407;29;20036;-72
2022/08/26 10:23:29;;;;;;;1.52;1.42;;;;;;;;;;4822532;29;20034;-72
2022/08/26 10:26:08;;;;;;;1.50;1.20;;;;;;;;;;4822936;29;20044;-72
2022/08/26 10:28:50;;;;;;;4.93;1.38;;;;;;;;;;4822555;29;20376;-72
2022/08/26 10:31:16;;;;;;;1.50;1.27;;;;;;;;;;4822835;29;20034;-72
2022/08/26 10:33:42;;;;;;;2.08;1.30;;;;;;;;;;4822244;29;20042;-72
2022/08/26 10:36:47;;;;;;;4.05;1.48;;;;;;;;;;4822309;29;20025;-72
2022/08/26 10:38:59;;;;;;;3.15;1.48;;;;;;;;;;4822650;29;20034;-71
2022/08/26 10:41:26;;;;;;;1.90;1.30;;;;;;;;;;4822638;29;20027;-72
2022/08/26 10:43:57;;;;;;;2.92;1.50;;;;;;;;;;4822345;29;20030;-73
2022/08/26 10:46:27;;;;;;;1.55;1.35;;;;;;;;;;4823734;29;20064;-72
2022/08/26 10:48:55;;;;;;;1.65;1.50;;;;;;;;;;4825642;29;20403;-71
2022/08/26 10:51:28;;;;;;;3.13;1.50;;;;;;;;;;4825451;29;20035;-72
2022/08/26 10:53:58;;;;;;;3.80;1.40;;;;;;;;;;4825380;29;20034;-71
2022/08/26 10:56:25;;;;;;;2.43;1.50;;;;;;;;;;4825670;29;20022;-72
2022/08/26 10:59:10;;;;;;;2.67;1.50;;;;;;;;;;4824400;29;20520;-71
2022/08/26 11:01:44;;;;;;;2.45;1.30;;;;;;;;;;4825326;29;20034;-71
2022/08/26 11:04:25;;;;;;;5.18;1.58;;;;;;;;;;4825262;29;20026;-71
2022/08/26 11:07:10;;;;;;;1.80;1.50;;;;;;;;;;4825506;29;20025;-71
2022/08/26 11:09:45;;;;;;;2.08;1.58;;;;;;;;;;4825587;29;20041;-71
2022/08/26 11:12:29;;;;;;;2.78;1.60;;;;;;;;;;4825231;29;20103;-71
2022/08/26 11:14:56;;;;;;;2.70;1.45;;;;;;;;;;4824754;29;20038;-71
2022/08/26 11:17:42;;;;;;;1.95;1.40;;;;;;;;;;4825026;29;20042;-72
2022/08/26 11:20:10;;;;;;;3.55;1.60;;;;;;;;;;4824422;29;20415;-72
2022/08/26 11:22:37;;;;;;;2.25;1.77;;;;;;;;;;4824709;29;20027;-72
2022/08/26 11:25:08;;;;;;;2.22;1.60;;;;;;;;;;4825061;29;20078;-72
2022/08/26 11:27:34;;;;;;;1.52;1.42;;;;;;;;;;4825294;29;20037;-71
2022/08/26 11:30:24;;;;;;;2.08;1.23;;;;;;;;;;4824864;29;20029;-72
2022/08/26 11:32:58;;;;;;;4.03;1.50;;;;;;;;;;4824321;29;20052;-71
2022/08/26 11:35:37;;;;;;;2.15;1.40;;;;;;;;;;4833624;29;20046;-71
2022/08/26 11:38:32;;;;;;;1.88;1.77;;;;;;;;;;4806638;29;20480;-71
2022/08/26 11:41:06;;;;;;;1.83;1.38;;;;;;;;;;4814322;29;20050;-72
2022/08/26 11:43:33;;;;;;;5.35;1.52;;;;;;;;;;4829120;29;20036;-72
2022/08/26 11:46:05;;;;;;;2.85;1.50;;;;;;;;;;4832229;29;20053;-72
2022/08/26 11:48:33;;;;;;;2.35;1.65;;;;;;;;;;4850116;29;20398;-72
2022/08/26 11:51:23;;;;;;;2.70;1.58;;;;;;;;;;4843149;29;20029;-72
2022/08/26 11:53:50;;;;;;;1.40;1.30;;;;;;;;;;4828143;29;20058;-72
2022/08/26 11:56:23;;;;;;;3.85;1.67;;;;;;;;;;4824807;29;20030;-72
2022/08/26 11:58:51;;;;;;;3.67;1.52;;;;;;;;;;4824123;29;20495;-72
2022/08/26 12:01:29;;;;;;;1.75;1.40;;;;;;;;;;4824352;29;20601;-72
2022/08/26 12:03:56;;;;;;;4.22;1.45;;;;;;;;;;4837919;29;20094;-72
2022/08/26 12:06:28;;;;;;;1.60;1.50;;;;;;;;;;4827588;29;20022;-72
2022/08/26 12:09:19;;;;;;;5.40;1.85;;;;;;;;;;4839754;29;20586;-71
2022/08/26 12:11:45;;;;;;;4.13;1.70;;;;;;;;;;4838505;29;20050;-72
2022/08/26 12:14:23;;;;;;;4.95;1.55;;;;;;;;;;4824309;29;20042;-72
2022/08/26 12:16:50;;;;;;;2.78;1.40;;;;;;;;;;4822340;29;20030;-72
2022/08/26 12:19:28;;;;;;;1.83;1.30;;;;;;;;;;4824161;29;20035;-72
2022/08/26 12:22:00;;;;;;;1.63;1.42;;;;;;;;;;4823922;29;20014;-71
2022/08/26 12:24:26;;;;;;;1.83;1.33;;;;;;;;;;4831347;29;20433;-71
2022/08/26 12:27:05;;;;;;;2.65;1.15;;;;;;;;;;4842048;29;20018;-71
2022/08/26 12:29:31;;;;;;;1.30;1.20;;;;;;;;;;4839524;29;20034;-71
2022/08/26 12:32:16;;;;;;;3.70;1.30;;;;;;;;;;4841342;29;20037;-71
2022/08/26 12:34:43;;;;;;;2.95;1.02;;;;;;;;;;4841978;29;20042;-71
2022/08/26 12:37:11;;;;;;;1.65;1.05;;;;;;;;;;4839874;29;20040;-71
2022/08/26 12:39:39;;;;;;;1.20;1.10;;;;;;;;;;4841762;29;20042;-72
2022/08/26 12:42:21;;;;;;;2.65;1.20;;;;;;;;;;4841644;29;20030;-72
2022/08/26 12:44:49;;;;;;;4.32;1.25;;;;;;;;;;4841458;29;20093;-71
2022/08/26 12:47:15;;;;;;;1.73;1.40;;;;;;;;;;4839212;29;20032;-72
2022/08/26 12:49:42;;;;;;;1.92;1.17;;;;;;;;;;4855854;29;20380;-72
2022/08/26 12:52:28;;;;;;;1.58;1.15;;;;;;;;;;4840834;29;20026;-72
2022/08/26 12:55:13;;;;;;;1.33;1.23;;;;;;;;;;4841452;29;20403;-72
2022/08/26 12:57:39;;;;;;;1.20;1.10;;;;;;;;;;4831224;29;20026;-72
2022/08/26 13:00:28;;;;;;;1.67;1.10;;;;;;;;;;4837553;29;20036;-71
2022/08/26 13:02:54;;;;;;;2.83;1.10;;;;;;;;;;4825354;29;20846;-72
2022/08/26 13:05:22;;;;;;;2.88;1.00;;;;;;;;;;4827629;29;20030;-72
2022/08/26 13:08:07;;;;;;;1.27;1.00;;;;;;;;;;4841462;29;20052;-72
2022/08/26 13:10:35;;;;;;;1.38;1.00;;;;;;;;;;4840868;29;20036;-72
2022/08/26 13:13:01;;;;;;;1.25;1.15;;;;;;;;;;4841130;29;20519;-72
2022/08/26 13:15:28;;;;;;;2.22;0.90;;;;;;;;;;4824124;29;20037;-72
2022/08/26 13:17:54;;;;;;;4.22;1.17;;;;;;;;;;4823227;29;20037;-72
2022/08/26 13:20:20;;;;;;;1.95;1.00;;;;;;;;;;4823299;29;20033;-72
2022/08/26 13:22:47;;;;;;;2.08;1.20;;;;;;;;;;4823209;29;20037;-72
2022/08/26 13:25:14;;;;;;;1.10;1.00;;;;;;;;;;4823019;29;20052;-72
2022/08/26 13:27:41;;;;;;;3.17;1.00;;;;;;;;;;4823430;29;20027;-72
2022/08/26 13:30:08;;;;;;;3.95;1.17;;;;;;;;;;4823153;29;20029;-71
2022/08/26 13:32:35;;;;;;;1.35;1.00;;;;;;;;;;4823043;29;20038;-72
2022/08/26 13:35:02;;;;;;;1.58;1.20;;;;;;;;;;4823206;29;20082;-72
2022/08/26 13:37:28;;;;;;;2.92;1.10;;;;;;;;;;4837046;29;20532;-72
2022/08/26 13:39:55;;;;;;;3.80;1.00;;;;;;;;;;4823585;29;20036;-72
2022/08/26 13:42:21;;;;;;;2.53;1.15;;;;;;;;;;4822984;29;20019;-72
2022/08/26 13:44:56;;;;;;;1.20;1.00;;;;;;;;;;4822579;29;20038;-71
2022/08/26 13:47:24;;;;;;;1.58;1.13;;;;;;;;;;4823038;29;20718;-72
2022/08/26 13:49:50;;;;;;;2.00;1.00;;;;;;;;;;4823121;29;20033;-72
2022/08/26 13:52:17;;;;;;;2.28;1.10;;;;;;;;;;4822997;29;20030;-71
2022/08/26 13:54:43;;;;;;;1.77;1.23;;;;;;;;;;4822476;29;20036;-72
2022/08/26 13:57:09;;;;;;;3.58;1.25;;;;;;;;;;4822816;29;20022;-72
2022/08/26 13:59:36;;;;;;;1.42;1.10;;;;;;;;;;4822595;29;20487;-72
2022/08/26 14:02:02;;;;;;;1.33;1.05;;;;;;;;;;4825093;29;20038;-72
2022/08/26 14:04:29;;;;;;;1.90;1.13;;;;;;;;;;4825242;29;20041;-72
2022/08/26 14:06:55;;;;;;;1.17;1.00;;;;;;;;;;4822694;29;20037;-71
2022/08/26 14:09:22;;;;;;;1.85;1.10;;;;;;;;;;4822546;29;20027;-72
2022/08/26 14:11:48;;;;;;;3.15;1.10;;;;;;;;;;4836579;29;20042;-71
2022/08/26 14:14:14;;;;;;;2.10;1.02;;;;;;;;;;4838269;29;20102;-71
2022/08/26 14:16:41;;;;;;;1.67;0.98;;;;;;;;;;4822473;29;20045;-71
2022/08/26 14:19:08;;;;;;;2.35;1.15;;;;;;;;;;4822805;29;20023;-71
2022/08/26 14:21:36;;;;;;;2.40;1.20;;;;;;;;;;4839290;29;20030;-71
2022/08/26 14:24:03;;;;;;;1.80;1.02;;;;;;;;;;4825850;29;20046;-71
2022/08/26 14:26:30;;;;;;;2.10;1.15;;;;;;;;;;4825777;29;20038;-71
2022/08/26 14:28:58;;;;;;;2.13;0.95;;;;;;;;;;4842513;29;20045;-72
